createdAt,value
2023-04-22T00:01:14.058Z,17.16
2023-04-22T00:03:46.017Z,17.05
2023-04-22T00:06:16.223Z,17.06
2023-04-22T00:08:46.652Z,17.14
2023-04-22T00:11:16.854Z,17.15
2023-04-22T00:13:47.273Z,17.12
2023-04-22T00:16:17.756Z,17.11
2023-04-22T00:18:47.743Z,17.15
2023-04-22T00:21:18.403Z,17.11
2023-04-22T00:23:48.371Z,17.19
2023-04-22T00:26:18.756Z,17.16
2023-04-22T00:28:48.938Z,17.18
2023-04-22T00:31:18.828Z,17.13
2023-04-22T00:33:49.382Z,17.07
2023-04-22T00:36:19.468Z,17.02
2023-04-22T00:38:52.811Z,16.97
2023-04-22T00:41:22.899Z,17.03
2023-04-22T00:43:54.613Z,16.86
2023-04-22T00:46:25.685Z,16.89
2023-04-22T00:48:55.930Z,16.84
2023-04-22T00:51:27.196Z,16.79
2023-04-22T00:53:57.624Z,16.78
2023-04-22T00:56:30.279Z,16.64
2023-04-22T00:59:01.301Z,16.56
2023-04-22T01:01:35.003Z,16.38
2023-04-22T01:04:06.254Z,16.31
2023-04-22T01:06:39.107Z,16.25
2023-04-22T01:09:09.489Z,16.25
2023-04-22T01:11:40.832Z,16.31
2023-04-22T01:14:14.080Z,16.21
2023-04-22T01:16:45.906Z,16.24
2023-04-22T01:19:16.729Z,16.18
2023-04-22T01:21:48.713Z,16.23
2023-04-22T01:24:18.842Z,16.33
2023-04-22T01:26:50.448Z,16.36
2023-04-22T01:29:20.742Z,16.22
2023-04-22T01:31:51.100Z,16.20
2023-04-22T01:34:21.284Z,16.05
2023-04-22T01:36:52.599Z,15.85
2023-04-22T01:39:22.823Z,15.86
2023-04-22T01:41:53.634Z,15.74
2023-04-22T01:44:23.779Z,15.73
2023-04-22T01:46:54.319Z,15.63
2023-04-22T01:49:24.438Z,15.76
2023-04-22T01:51:55.062Z,15.81
2023-04-22T01:54:24.969Z,15.76
2023-04-22T01:56:56.669Z,15.74
2023-04-22T01:59:26.763Z,15.73
2023-04-22T02:01:57.400Z,15.76
2023-04-22T02:04:27.955Z,15.76
2023-04-22T02:06:57.958Z,15.76
2023-04-22T02:09:28.542Z,15.73
2023-04-22T02:11:59.038Z,15.70
2023-04-22T02:14:29.547Z,15.68
2023-04-22T02:17:05.957Z,15.66
2023-04-22T02:19:35.908Z,15.70
2023-04-22T02:22:06.398Z,15.67
2023-04-22T02:24:36.750Z,15.76
2023-04-22T02:27:09.799Z,15.79
2023-04-22T02:29:40.070Z,15.77
2023-04-22T02:32:11.056Z,15.80
2023-04-22T02:34:41.961Z,15.83
2023-04-22T02:37:12.452Z,15.86
2023-04-22T02:39:42.608Z,15.70
2023-04-22T02:42:13.169Z,15.70
2023-04-22T02:44:43.183Z,15.78
2023-04-22T02:47:13.070Z,15.71
2023-04-22T02:49:43.452Z,15.75
2023-04-22T02:52:13.492Z,15.78
2023-04-22T02:54:44.052Z,15.90
2023-04-22T02:57:14.165Z,15.99
2023-04-22T02:59:44.655Z,16.02
2023-04-22T03:02:16.990Z,16.06
2023-04-22T03:05:15.761Z,16.19
2023-04-22T03:07:46.151Z,15.97
2023-04-22T03:10:17.783Z,15.80
2023-04-22T03:12:47.881Z,15.66
2023-04-22T03:15:20.538Z,15.70
2023-04-22T03:17:51.729Z,15.64
2023-04-22T03:20:23.773Z,15.71
2023-04-22T03:22:53.841Z,15.77
2023-04-22T03:25:25.125Z,15.86
2023-04-22T03:27:57.434Z,15.89
2023-04-22T03:30:28.179Z,15.92
2023-04-22T03:32:59.315Z,15.81
2023-04-22T03:35:44.385Z,15.74
2023-04-22T03:38:14.501Z,15.76
2023-04-22T03:40:45.661Z,15.78
2023-04-22T03:43:24.158Z,15.67
2023-04-22T03:46:03.518Z,15.67
2023-04-22T03:48:36.908Z,15.68
2023-04-22T03:51:12.615Z,15.60
2023-04-22T03:53:43.887Z,15.62
2023-04-22T03:56:19.395Z,15.58
2023-04-22T03:58:50.039Z,15.37
2023-04-22T04:01:20.521Z,15.19
2023-04-22T04:03:53.711Z,15.37
2023-04-22T04:06:25.546Z,15.65
2023-04-22T04:08:56.027Z,15.92
2023-04-22T04:11:26.183Z,16.06
2023-04-22T04:13:58.245Z,16.15
2023-04-22T04:16:36.178Z,16.06
2023-04-22T04:19:20.959Z,16.11
2023-04-22T04:21:52.600Z,16.32
2023-04-22T04:24:27.462Z,16.40
2023-04-22T04:27:07.506Z,16.56
2023-04-22T04:29:45.746Z,16.65
2023-04-22T04:32:20.064Z,16.63
2023-04-22T04:34:51.190Z,16.72
2023-04-22T04:37:21.397Z,16.66
2023-04-22T04:40:13.522Z,16.61
2023-04-22T04:43:09.642Z,16.65
2023-04-22T04:45:50.764Z,16.68
2023-04-22T04:48:28.183Z,16.60
2023-04-22T04:51:07.357Z,16.50
2023-04-22T04:53:45.849Z,16.46
2023-04-22T04:56:16.012Z,16.26
2023-04-22T04:58:47.604Z,16.18
2023-04-22T05:01:24.558Z,16.05
2023-04-22T05:03:55.983Z,15.68
2023-04-22T05:06:26.383Z,15.48
2023-04-22T05:09:02.629Z,15.32
2023-04-22T05:11:32.930Z,15.27
2023-04-22T05:14:05.608Z,15.34
2023-04-22T05:16:40.315Z,15.46
2023-04-22T05:19:11.902Z,15.40
2023-04-22T05:21:41.977Z,15.49
2023-04-22T05:24:12.694Z,15.58
2023-04-22T05:26:43.200Z,15.73
2023-04-22T05:29:18.327Z,15.78
2023-04-22T05:31:49.094Z,15.69
2023-04-22T05:34:19.261Z,15.26
2023-04-22T05:36:49.924Z,15.00
2023-04-22T05:39:20.365Z,15.19
2023-04-22T05:41:52.007Z,15.27
2023-04-22T05:44:22.294Z,15.13
2023-04-22T05:46:52.168Z,15.02
2023-04-22T05:49:24.433Z,14.97
2023-04-22T05:52:06.834Z,14.84
2023-04-22T05:54:50.027Z,14.82
2023-04-22T05:57:20.414Z,14.76
2023-04-22T05:59:50.283Z,14.71
2023-04-22T06:02:20.889Z,14.30
2023-04-22T06:04:51.341Z,14.04
2023-04-22T06:07:21.986Z,13.82
2023-04-22T06:09:59.411Z,13.65
2023-04-22T06:12:35.829Z,13.67
2023-04-22T06:15:07.044Z,13.57
2023-04-22T06:17:38.208Z,13.59
2023-04-22T06:20:09.149Z,13.63
2023-04-22T06:22:39.663Z,13.69
2023-04-22T06:25:11.839Z,13.66
2023-04-22T06:27:42.303Z,13.70
2023-04-22T06:30:13.626Z,13.84
2023-04-22T06:32:44.158Z,14.03
2023-04-22T06:35:14.264Z,14.23
2023-04-22T06:37:45.108Z,14.28
2023-04-22T06:40:16.872Z,14.34
2023-04-22T06:43:05.646Z,14.35
2023-04-22T06:46:04.586Z,14.19
2023-04-22T06:48:52.359Z,14.17
2023-04-22T06:51:45.533Z,14.00
2023-04-22T06:54:16.051Z,14.01
2023-04-22T06:56:47.234Z,13.97
2023-04-22T06:59:17.613Z,13.94
2023-04-22T07:01:48.720Z,14.01
2023-04-22T07:04:22.264Z,14.06
2023-04-22T07:06:53.279Z,14.18
2023-04-22T07:09:23.310Z,14.42
2023-04-22T07:11:53.306Z,14.46
2023-04-22T07:14:24.169Z,14.79
2023-04-22T07:16:54.203Z,14.81
2023-04-22T07:19:24.705Z,15.04
2023-04-22T07:21:54.955Z,15.20
2023-04-22T07:24:25.863Z,15.39
2023-04-22T07:26:55.884Z,15.40
2023-04-22T07:29:26.332Z,15.47
2023-04-22T07:31:57.809Z,15.59
2023-04-22T07:34:28.740Z,15.58
2023-04-22T07:36:58.689Z,15.75
2023-04-22T07:39:29.318Z,15.53
2023-04-22T07:41:59.649Z,15.25
2023-04-22T07:44:30.326Z,15.35
2023-04-22T07:47:01.395Z,15.33
2023-04-22T07:49:32.020Z,15.18
2023-04-22T07:52:02.071Z,15.38
2023-04-22T07:54:32.113Z,15.26
2023-04-22T07:57:02.755Z,15.36
2023-04-22T07:59:32.892Z,15.43
2023-04-22T08:02:03.383Z,15.45
2023-04-22T08:04:33.765Z,15.52
2023-04-22T08:07:17.214Z,15.48
2023-04-22T08:09:57.220Z,15.39
2023-04-22T08:12:27.692Z,15.83
2023-04-22T08:14:59.718Z,16.04
2023-04-22T08:17:30.349Z,16.04
2023-04-22T08:20:00.683Z,15.92
2023-04-22T08:22:31.109Z,15.61
2023-04-22T08:25:02.609Z,15.39
2023-04-22T08:27:33.046Z,15.23
2023-04-22T08:30:03.650Z,15.39
2023-04-22T08:32:33.598Z,15.22
2023-04-22T08:35:05.302Z,15.49
2023-04-22T08:37:36.399Z,15.52
2023-04-22T08:40:08.007Z,15.35
2023-04-22T08:42:39.295Z,15.21
2023-04-22T08:45:11.081Z,15.24
2023-04-22T08:47:41.739Z,14.93
2023-04-22T08:50:12.892Z,14.93
2023-04-22T08:52:44.785Z,14.93
2023-04-22T08:55:15.355Z,14.74
2023-04-22T08:57:46.585Z,14.72
2023-04-22T09:00:19.936Z,14.65
2023-04-22T09:02:51.548Z,14.25
2023-04-22T09:05:24.779Z,14.03
2023-04-22T09:07:56.385Z,13.76
2023-04-22T09:10:27.459Z,13.68
2023-04-22T09:12:59.892Z,13.50
2023-04-22T09:15:31.284Z,13.50
2023-04-22T09:18:01.252Z,13.44
2023-04-22T09:20:32.311Z,13.35
2023-04-22T09:23:06.319Z,13.47
2023-04-22T09:25:37.564Z,13.40
2023-04-22T09:28:12.583Z,13.61
2023-04-22T09:30:42.800Z,13.77
2023-04-22T09:33:14.857Z,13.87
2023-04-22T09:35:45.693Z,13.93
2023-04-22T09:38:15.620Z,13.87
2023-04-22T09:40:46.410Z,13.74
2023-04-22T09:43:21.768Z,13.73
2023-04-22T09:45:52.576Z,13.62
2023-04-22T09:48:23.089Z,13.63
2023-04-22T09:50:53.693Z,13.64
2023-04-22T09:53:24.434Z,13.70
2023-04-22T09:55:57.096Z,13.79
2023-04-22T09:58:28.858Z,13.87
2023-04-22T10:01:00.525Z,14.00
2023-04-22T10:03:31.128Z,14.07
2023-04-22T10:06:01.329Z,14.02
2023-04-22T10:08:34.430Z,14.16
2023-04-22T10:11:04.936Z,14.30
2023-04-22T10:13:38.298Z,14.45
2023-04-22T10:16:08.110Z,14.62
2023-04-22T10:18:42.401Z,14.81
2023-04-22T10:21:12.647Z,15.05
2023-04-22T10:23:51.011Z,15.31
2023-04-22T10:26:44.042Z,15.69
2023-04-22T10:29:21.041Z,15.91
2023-04-22T10:32:00.786Z,16.11
2023-04-22T10:34:35.215Z,16.24
2023-04-22T10:37:15.104Z,16.32
2023-04-22T10:40:24.009Z,16.43
2023-04-22T10:42:57.013Z,16.72
2023-04-22T10:45:27.751Z,17.02
2023-04-22T10:47:57.953Z,17.33
2023-04-22T10:50:29.266Z,17.66
2023-04-22T10:53:00.674Z,17.98
2023-04-22T10:55:54.128Z,18.60
2023-04-22T10:58:26.663Z,18.96
2023-04-22T11:01:04.204Z,19.27
2023-04-22T11:03:35.043Z,19.65
2023-04-22T11:06:28.887Z,19.79
2023-04-22T11:09:18.075Z,20.40
2023-04-22T11:11:49.110Z,20.54
2023-04-22T11:14:20.369Z,21.16
2023-04-22T11:16:52.990Z,21.30
2023-04-22T11:19:23.556Z,21.39
2023-04-22T11:21:55.032Z,21.94
2023-04-22T11:24:25.528Z,21.74
2023-04-22T11:26:58.242Z,22.51
2023-04-22T11:29:28.734Z,22.64
2023-04-22T11:32:02.443Z,23.01
2023-04-22T11:34:32.392Z,23.62
2023-04-22T11:37:02.945Z,24.40
2023-04-22T11:39:50.299Z,24.74
2023-04-22T11:42:29.663Z,25.15
2023-04-22T11:45:00.608Z,26.25
2023-04-22T11:47:35.785Z,26.59
2023-04-22T11:50:10.772Z,26.40
2023-04-22T11:52:57.192Z,26.70
2023-04-22T11:55:32.803Z,27.37
2023-04-22T11:58:11.196Z,27.56
2023-04-22T12:00:45.411Z,27.85
2023-04-22T12:03:20.370Z,27.75
2023-04-22T12:05:58.468Z,26.44
2023-04-22T12:08:45.515Z,27.68
2023-04-22T12:11:15.503Z,27.27
2023-04-22T12:13:51.795Z,27.91
2023-04-22T12:16:22.245Z,27.18
2023-04-22T12:18:56.830Z,27.91
2023-04-22T12:21:29.474Z,28.19
2023-04-22T12:24:08.182Z,28.66
2023-04-22T12:26:41.149Z,29.30
2023-04-22T12:29:11.794Z,28.53
2023-04-22T12:31:41.994Z,28.68
2023-04-22T12:34:12.430Z,29.24
2023-04-22T12:36:43.127Z,30.26
2023-04-22T12:39:13.753Z,30.10
2023-04-22T12:41:43.888Z,30.75
2023-04-22T12:44:13.824Z,30.90
2023-04-22T12:46:44.404Z,30.86
2023-04-22T12:49:15.644Z,30.91
2023-04-22T12:51:46.037Z,30.38
2023-04-22T12:54:18.242Z,30.79
2023-04-22T12:56:49.009Z,30.70
2023-04-22T12:59:19.012Z,30.52
2023-04-22T13:01:48.907Z,31.15
2023-04-22T13:04:21.438Z,30.37
2023-04-22T13:06:57.376Z,30.82
2023-04-22T13:09:28.203Z,31.15
2023-04-22T13:11:59.462Z,30.83
2023-04-22T13:14:29.838Z,31.60
2023-04-22T13:16:59.996Z,31.88
2023-04-22T13:19:30.809Z,31.87
2023-04-22T13:22:01.093Z,31.56
2023-04-22T13:24:31.877Z,31.72
2023-04-22T13:27:02.727Z,32.19
2023-04-22T13:29:33.226Z,31.90
2023-04-22T13:32:03.580Z,31.08
2023-04-22T13:34:34.018Z,31.37
2023-04-22T13:37:04.235Z,30.25
2023-04-22T13:39:34.788Z,30.02
2023-04-22T13:42:05.037Z,30.63
2023-04-22T13:44:35.556Z,30.70
2023-04-22T13:47:05.691Z,29.58
2023-04-22T13:49:36.139Z,29.33
2023-04-22T13:52:06.177Z,28.76
2023-04-22T13:54:35.997Z,28.98
2023-04-22T13:57:07.173Z,29.62
2023-04-22T13:59:38.344Z,30.99
2023-04-22T14:02:09.673Z,31.10
2023-04-22T14:04:39.831Z,32.31
2023-04-22T14:07:13.086Z,32.30
2023-04-22T14:09:43.455Z,33.47
2023-04-22T14:12:14.633Z,33.57
2023-04-22T14:14:44.799Z,34.73
2023-04-22T14:17:15.261Z,34.82
2023-04-22T14:19:46.098Z,34.08
2023-04-22T14:22:16.644Z,34.39
2023-04-22T14:24:46.797Z,33.56
2023-04-22T14:27:17.359Z,34.70
2023-04-22T14:29:47.560Z,34.74
2023-04-22T14:32:18.615Z,34.09
2023-04-22T14:34:49.127Z,33.02
2023-04-22T14:37:19.615Z,32.29
2023-04-22T14:39:49.632Z,32.56
2023-04-22T14:42:20.757Z,32.97
2023-04-22T14:44:50.777Z,33.08
2023-04-22T14:47:21.414Z,31.42
2023-04-22T14:49:51.734Z,31.84
2023-04-22T14:52:22.208Z,32.90
2023-04-22T14:54:52.349Z,33.01
2023-04-22T14:57:24.665Z,33.31
2023-04-22T14:59:54.756Z,34.86
2023-04-22T15:02:25.377Z,35.61
2023-04-22T15:04:55.532Z,35.80
2023-04-22T15:07:26.200Z,36.13
2023-04-22T15:09:56.884Z,36.64
2023-04-22T15:12:27.646Z,35.63
2023-04-22T15:14:57.708Z,34.65
2023-04-22T15:17:28.607Z,34.21
2023-04-22T15:19:59.009Z,34.64
2023-04-22T15:22:29.409Z,34.72
2023-04-22T15:24:59.214Z,35.35
2023-04-22T15:27:29.684Z,35.50
2023-04-22T15:29:59.770Z,35.37
2023-04-22T15:32:30.320Z,34.86
2023-04-22T15:35:00.495Z,34.55
2023-04-22T15:37:30.947Z,34.76
2023-04-22T15:40:01.311Z,35.50
2023-04-22T15:42:31.834Z,35.50
2023-04-22T15:45:03.564Z,35.27
2023-04-22T15:47:35.015Z,35.66
2023-04-22T15:50:09.933Z,35.26
2023-04-22T15:52:40.925Z,34.56
2023-04-22T15:55:11.304Z,33.38
2023-04-22T15:57:41.739Z,32.88
2023-04-22T16:00:14.576Z,33.30
2023-04-22T16:02:45.532Z,33.24
2023-04-22T16:05:15.804Z,33.75
2023-04-22T16:07:46.319Z,34.03
2023-04-22T16:10:16.359Z,33.55
2023-04-22T16:12:46.817Z,34.49
2023-04-22T16:15:17.738Z,34.67
2023-04-22T16:17:48.343Z,34.03
2023-04-22T16:20:18.539Z,34.37
2023-04-22T16:22:49.020Z,34.55
2023-04-22T16:25:20.371Z,34.93
2023-04-22T16:27:51.561Z,33.64
2023-04-22T16:30:21.646Z,34.50
2023-04-22T16:32:51.725Z,34.80
2023-04-22T16:35:22.238Z,34.86
2023-04-22T16:37:52.252Z,34.38
2023-04-22T16:40:22.745Z,34.85
2023-04-22T16:42:53.905Z,34.33
2023-04-22T16:45:24.409Z,33.90
2023-04-22T16:47:54.311Z,35.40
2023-04-22T16:50:25.525Z,35.72
2023-04-22T16:52:55.585Z,36.56
2023-04-22T16:55:25.954Z,37.00
2023-04-22T16:57:56.632Z,37.58
2023-04-22T17:00:27.216Z,37.32
2023-04-22T17:02:57.511Z,37.61
2023-04-22T17:05:28.105Z,37.48
2023-04-22T17:07:58.236Z,36.79
2023-04-22T17:10:29.925Z,36.96
2023-04-22T17:13:00.211Z,36.77
2023-04-22T17:15:30.625Z,36.92
2023-04-22T17:18:01.566Z,37.61
2023-04-22T17:20:32.251Z,37.81
2023-04-22T17:23:03.116Z,37.65
2023-04-22T17:25:33.751Z,37.79
2023-04-22T17:28:03.836Z,37.52
2023-04-22T17:30:34.604Z,37.67
2023-04-22T17:33:04.996Z,37.83
2023-04-22T17:35:35.878Z,38.05
2023-04-22T17:38:06.898Z,38.31
2023-04-22T17:40:37.031Z,38.29
2023-04-22T17:43:07.032Z,37.93
2023-04-22T17:45:37.092Z,37.74
2023-04-22T17:48:07.572Z,35.63
2023-04-22T17:50:37.744Z,36.37
2023-04-22T17:53:08.413Z,33.62
2023-04-22T17:55:39.961Z,33.71
2023-04-22T17:58:10.485Z,33.09
2023-04-22T18:00:40.747Z,32.93
2023-04-22T18:03:11.345Z,33.32
2023-04-22T18:05:44.275Z,32.78
2023-04-22T18:08:14.768Z,32.98
2023-04-22T18:10:44.760Z,33.97
2023-04-22T18:13:15.260Z,33.98
2023-04-22T18:15:45.318Z,34.47
2023-04-22T18:18:17.288Z,34.61
2023-04-22T18:20:47.545Z,35.13
2023-04-22T18:23:18.582Z,35.28
2023-04-22T18:25:49.200Z,34.85
2023-04-22T18:28:19.610Z,35.12
2023-04-22T18:30:49.746Z,35.28
2023-04-22T18:33:20.268Z,35.42
2023-04-22T18:35:50.175Z,35.25
2023-04-22T18:38:21.180Z,34.90
2023-04-22T18:40:51.048Z,34.57
2023-04-22T18:43:21.527Z,34.78
2023-04-22T18:45:51.895Z,35.58
2023-04-22T18:48:23.526Z,35.16
2023-04-22T18:50:53.972Z,34.22
2023-04-22T18:53:24.525Z,33.38
2023-04-22T18:55:54.423Z,31.75
2023-04-22T18:58:24.339Z,31.18
2023-04-22T19:00:54.440Z,30.76
2023-04-22T19:03:24.661Z,30.02
2023-04-22T19:05:55.766Z,29.47
2023-04-22T19:08:26.171Z,29.60
2023-04-22T19:10:57.193Z,29.77
2023-04-22T19:13:29.723Z,29.69
2023-04-22T19:16:01.023Z,29.70
2023-04-22T19:18:31.774Z,29.59
2023-04-22T19:21:01.993Z,29.89
2023-04-22T19:23:32.682Z,30.11
2023-04-22T19:26:03.092Z,30.45
2023-04-22T19:28:32.945Z,29.60
2023-04-22T19:31:07.069Z,29.55
2023-04-22T19:33:37.265Z,29.16
2023-04-22T19:36:07.274Z,29.26
2023-04-22T19:38:37.156Z,28.77
2023-04-22T19:41:09.745Z,28.80
2023-04-22T19:43:41.587Z,29.51
2023-04-22T19:46:11.817Z,28.76
2023-04-22T19:48:42.482Z,28.63
2023-04-22T19:51:12.783Z,28.54
2023-04-22T19:53:43.559Z,28.20
2023-04-22T19:56:13.846Z,27.97
2023-04-22T19:58:44.398Z,27.76
2023-04-22T20:01:15.073Z,27.69
2023-04-22T20:03:46.020Z,27.46
2023-04-22T20:06:17.637Z,27.21
2023-04-22T20:08:49.220Z,26.89
2023-04-22T20:11:20.043Z,26.84
2023-04-22T20:13:51.269Z,26.83
2023-04-22T20:16:21.961Z,26.48
2023-04-22T20:18:53.393Z,26.36
2023-04-22T20:21:24.196Z,26.65
2023-04-22T20:24:00.842Z,26.87
2023-04-22T20:26:31.925Z,26.86
2023-04-22T20:29:03.766Z,26.72
2023-04-22T20:31:35.584Z,26.36
2023-04-22T20:34:06.111Z,25.87
2023-04-22T20:36:40.065Z,25.40
2023-04-22T20:39:15.268Z,25.20
2023-04-22T20:41:46.905Z,25.00
2023-04-22T20:44:16.961Z,25.11
2023-04-22T20:46:47.971Z,24.42
2023-04-22T20:49:18.996Z,24.43
2023-04-22T20:51:49.594Z,24.33
2023-04-22T20:54:28.579Z,24.09
2023-04-22T20:57:00.067Z,23.57
2023-04-22T20:59:30.156Z,23.23
2023-04-22T21:02:01.208Z,23.04
2023-04-22T21:04:33.266Z,22.88
2023-04-22T21:07:08.911Z,22.96
2023-04-22T21:09:39.880Z,22.70
2023-04-22T21:12:11.837Z,22.59
2023-04-22T21:14:43.714Z,22.48
2023-04-22T21:17:30.241Z,22.30
2023-04-22T21:20:01.379Z,22.05
2023-04-22T21:22:32.478Z,22.14
2023-04-22T21:25:03.630Z,21.85
2023-04-22T21:27:33.829Z,21.66
2023-04-22T21:30:04.685Z,21.45
2023-04-22T21:32:36.279Z,21.53
2023-04-22T21:35:07.374Z,21.37
2023-04-22T21:37:38.546Z,21.17
2023-04-22T21:40:12.995Z,20.89
2023-04-22T21:42:45.770Z,21.06
2023-04-22T21:45:16.131Z,20.97
2023-04-22T21:47:46.222Z,20.64
2023-04-22T21:50:18.089Z,20.57
2023-04-22T21:52:50.847Z,20.28
2023-04-22T21:55:21.854Z,20.22
2023-04-22T21:57:52.246Z,20.09
2023-04-22T22:00:22.713Z,19.94
2023-04-22T22:02:54.127Z,19.77
2023-04-22T22:05:24.677Z,19.67
2023-04-22T22:07:56.398Z,19.58
2023-04-22T22:10:27.293Z,19.46
2023-04-22T22:12:57.461Z,19.36
2023-04-22T22:15:27.932Z,19.35
2023-04-22T22:17:58.056Z,19.29
2023-04-22T22:20:30.991Z,19.20
2023-04-22T22:23:01.233Z,19.19
2023-04-22T22:25:31.855Z,19.27
2023-04-22T22:28:01.906Z,19.30
2023-04-22T22:30:32.340Z,19.30
2023-04-22T22:33:03.327Z,19.16
2023-04-22T22:35:33.350Z,18.96
2023-04-22T22:38:04.039Z,18.77
2023-04-22T22:40:34.176Z,18.66
2023-04-22T22:43:04.602Z,18.65
2023-04-22T22:45:34.719Z,18.53
2023-04-22T22:48:07.014Z,18.50
2023-04-22T22:50:37.559Z,18.49
2023-04-22T22:53:07.639Z,18.48
2023-04-22T22:55:38.167Z,18.43
2023-04-22T22:58:08.002Z,18.42
2023-04-22T23:00:38.740Z,18.28
2023-04-22T23:03:09.430Z,18.23
2023-04-22T23:05:39.866Z,18.10
2023-04-22T23:08:10.276Z,17.94
2023-04-22T23:10:40.365Z,17.83
2023-04-22T23:13:10.821Z,17.77
2023-04-22T23:15:41.013Z,17.72
2023-04-22T23:18:11.706Z,17.74
2023-04-22T23:20:43.388Z,17.76
2023-04-22T23:23:17.149Z,17.63
2023-04-22T23:25:50.948Z,17.48
2023-04-22T23:28:21.643Z,17.43
2023-04-22T23:30:53.003Z,17.24
2023-04-22T23:33:27.555Z,17.08
2023-04-22T23:35:58.612Z,17.14
2023-04-22T23:38:29.398Z,17.07
2023-04-22T23:40:59.390Z,17.12
2023-04-22T23:43:29.914Z,17.15
2023-04-22T23:45:59.814Z,17.14
2023-04-22T23:48:29.769Z,17.07
2023-04-22T23:51:00.257Z,17.02
2023-04-22T23:53:30.186Z,16.95
2023-04-22T23:56:00.831Z,16.98
2023-04-22T23:58:30.807Z,17.00
